»·PEaware :: N799DS KVNY-KBFL

N799DS :: KVNY-KBFL

FLIGHT INFORMATION

Flight Status: Arrived
Operator: Privately registered:
United States
More flights under this callsign
Pilot: Wolfgang B. (15069)
Aircraft: CESSNA 172 SKYHAWK
(C172)
More flights by this aircraft type
Origin: KVNY Van Nuys
United States
Destination: KBFL Meadows
United States
More flights between these airports :: More routes between these airports
Route: +CANOG3 GMN FASTO2
File this flight plan on PilotEdge
Remarks:
Altitude:
(Current/Filed)
10,000ft
Speed:
(Current/Filed)
120kts
Departed: 28-Mar-20 02:15 PM
Arrived: 28-Mar-20 03:06 PM
Distance/Time
Traveled:
78nm/0:51
Distance/Time
To Go:
Arrived

Flight Plot

Page will automatically refresh every two minutes.

Flight plan parsing failed; only flown route is shown


Map Options




Map Legend


Flown Route
Filed Route
Departure Airport
Arrival Airport
Navaid (VOR, NDB)
Fix

Horizontal Profiles

Position Reports

Time Latitude Longitude Heading Altitude Ground
Speed
28-Mar-20 13:46 34.218669 -118.496142 184 806ft 0kts
28-Mar-20 13:47 34.218669 -118.496142 184 806ft 0kts
28-Mar-20 13:48 34.218669 -118.496142 184 806ft 0kts
28-Mar-20 13:49 34.218669 -118.496142 184 806ft 0kts
28-Mar-20 13:50 34.218669 -118.496142 184 806ft 0kts
28-Mar-20 13:51 34.218669 -118.496142 184 806ft 0kts
28-Mar-20 13:52 34.218669 -118.496142 184 806ft 0kts
28-Mar-20 13:53 34.218669 -118.496142 184 806ft 0kts
28-Mar-20 13:54 34.218669 -118.496142 184 806ft 0kts
28-Mar-20 13:55 34.218669 -118.496142 184 806ft 0kts
28-Mar-20 13:56 34.218669 -118.496142 184 806ft 0kts
28-Mar-20 13:57 34.218669 -118.496142 184 806ft 0kts
28-Mar-20 13:58 34.218669 -118.496142 184 806ft 0kts
28-Mar-20 13:59 34.218669 -118.496142 184 806ft 0kts
28-Mar-20 14:00 34.218669 -118.496142 184 806ft 0kts
28-Mar-20 14:01 34.218669 -118.496142 184 806ft 0kts
28-Mar-20 14:02 34.218669 -118.496142 184 806ft 0kts
28-Mar-20 14:03 34.218669 -118.496142 184 806ft 0kts
28-Mar-20 14:04 34.218668 -118.496142 184 806ft 0kts
28-Mar-20 14:05 34.218668 -118.496142 184 806ft 0kts
28-Mar-20 14:06 34.217613 -118.495870 108 806ft 5kts
28-Mar-20 14:07 34.217218 -118.492773 100 806ft 8kts
28-Mar-20 14:08 34.218612 -118.492266 39 806ft 0kts
28-Mar-20 14:09 34.218612 -118.492266 39 806ft 0kts
28-Mar-20 14:10 34.218612 -118.492266 39 806ft 0kts
28-Mar-20 14:11 34.218612 -118.492266 39 806ft 0kts
28-Mar-20 14:12 34.218612 -118.492266 39 806ft 0kts
28-Mar-20 14:13 34.218660 -118.492219 39 806ft 4kts
28-Mar-20 14:14 34.208549 -118.490045 175 1072ft 71kts
28-Mar-20 14:15 34.187603 -118.485899 176 1809ft 89kts
28-Mar-20 14:16 34.167811 -118.494712 224 2702ft 78kts
28-Mar-20 14:17 34.152413 -118.511133 223 3526ft 72kts
28-Mar-20 14:18 34.146651 -118.532404 270 4258ft 71kts
28-Mar-20 14:19 34.155651 -118.549956 349 4943ft 77kts
28-Mar-20 14:20 34.177099 -118.551577 351 5596ft 77kts
28-Mar-20 14:21 34.198684 -118.553229 351 6213ft 78kts
28-Mar-20 14:22 34.220324 -118.554958 351 6795ft 78kts
28-Mar-20 14:23 34.242091 -118.556742 351 7343ft 78kts
28-Mar-20 14:24 34.264092 -118.558456 351 7865ft 80kts
28-Mar-20 14:25 34.286112 -118.561194 331 8468ft 78kts
28-Mar-20 14:26 34.305973 -118.572695 328 9040ft 79kts
28-Mar-20 14:27 34.326105 -118.584360 328 9580ft 81kts
28-Mar-20 14:28 34.346955 -118.596442 328 10006ft 93kts
28-Mar-20 14:29 34.374270 -118.612160 329 10007ft 118kts
28-Mar-20 14:30 34.404663 -118.629594 329 10008ft 122kts
28-Mar-20 14:31 34.435352 -118.647289 329 10016ft 122kts
28-Mar-20 14:32 34.466273 -118.665162 329 10022ft 123kts
28-Mar-20 14:33 34.497539 -118.683255 329 10027ft 124kts
28-Mar-20 14:34 34.528907 -118.701423 329 10031ft 125kts
28-Mar-20 14:35 34.560325 -118.719636 329 10033ft 125kts
28-Mar-20 14:36 34.591892 -118.737949 329 10029ft 125kts
28-Mar-20 14:37 34.623299 -118.756183 329 10025ft 124kts
28-Mar-20 14:38 34.654493 -118.774312 329 10022ft 123kts
28-Mar-20 14:39 34.676273 -118.786982 329 10020ft 123kts
28-Mar-20 14:40 34.706949 -118.804834 328 10007ft 122kts
28-Mar-20 14:41 34.737558 -118.822669 328 10001ft 121kts
28-Mar-20 14:42 34.767821 -118.840310 329 10002ft 120kts
28-Mar-20 14:43 34.798048 -118.857930 330 10004ft 120kts
28-Mar-20 14:44 34.832329 -118.860968 353 10005ft 124kts
28-Mar-20 14:45 34.866695 -118.861511 353 10006ft 123kts
28-Mar-20 14:46 34.901109 -118.862033 354 10007ft 123kts
28-Mar-20 14:47 34.935647 -118.862097 356 10007ft 124kts
28-Mar-20 14:48 34.970330 -118.861589 355 10007ft 124kts
28-Mar-20 14:49 35.005055 -118.861423 355 9529ft 124kts
28-Mar-20 14:50 35.039765 -118.861487 355 8932ft 125kts
28-Mar-20 14:51 35.074905 -118.861586 355 8158ft 127kts
28-Mar-20 14:52 35.110204 -118.862177 355 7354ft 125kts
28-Mar-20 14:53 35.144782 -118.863429 355 6557ft 124kts
28-Mar-20 14:54 35.179020 -118.865377 355 5760ft 123kts
28-Mar-20 14:55 35.212289 -118.867894 355 5041ft 115kts
28-Mar-20 14:56 35.241279 -118.882602 322 4681ft 122kts
28-Mar-20 14:57 35.268083 -118.908234 322 3980ft 120kts
28-Mar-20 14:58 35.294447 -118.933499 322 3281ft 120kts
28-Mar-20 14:59 35.320920 -118.958835 322 3026ft 117kts
28-Mar-20 15:00 35.346603 -118.983419 323 2899ft 124kts
28-Mar-20 15:01 35.376519 -119.001975 335 2327ft 107kts
28-Mar-20 15:02 35.399608 -119.015574 324 1415ft 89kts
28-Mar-20 15:03 35.415145 -119.033600 315 980ft 74kts
28-Mar-20 15:04 35.429432 -119.050880 314 589ft 69kts
28-Mar-20 15:05 35.438271 -119.059548 90 496ft 0kts
28-Mar-20 15:06 35.438271 -119.059548 90 496ft 0kts
28-Mar-20 15:07 35.438271 -119.059548 90 496ft 0kts
28-Mar-20 15:08 35.438271 -119.059533 90 497ft 0kts
28-Mar-20 15:09 35.438271 -119.059533 90 497ft 0kts
28-Mar-20 15:10 35.438271 -119.059533 90 497ft 0kts
28-Mar-20 15:11 35.438271 -119.059533 90 497ft 0kts
28-Mar-20 15:12 35.438271 -119.059474 89 497ft 3kts
28-Mar-20 15:14 35.434085 -119.054225 134 492ft 30kts
28-Mar-20 15:15 35.427911 -119.046807 134 487ft 31kts
28-Mar-20 15:16 35.425030 -119.042259 35 480ft 0kts
28-Mar-20 15:17 35.425030 -119.042259 35 480ft 0kts
28-Mar-20 15:18 35.425030 -119.042259 35 480ft 0kts
28-Mar-20 15:19 35.425030 -119.042259 35 480ft 0kts
28-Mar-20 15:20 35.425030 -119.042259 35 480ft 0kts

Navigation Log

Ident Type
Flight plan parsing failed, navigation log unavailable